Welcome to our new website - Welkom op onze vernieuwde website - Bienvenue sur notre nouveau site web - Willkommen auf unserer neuen Website

Onweer radar Meer informatie blitzortung!


Regen radar Meer informatie rain snow radar


Andere websites:

Onze vorige site

Leuven Template


METAR rapporten vliegvelden

   
EHGG - Leeuwarden
Gewijzigd: 25-09-2021 07:55
Bewolking  
Bewolking  
   Wind: ZW 11.1 km/h
Wind: ZW 11.1 km/h
Temperatuur: 16°C
Dauwpunt: 15°C
Vochtigheid: 94%
Barometer: 1013 hPa
Bewolking: Bewolking
Zicht: 9 km
Bewolking: Licht bewolkt 800 ft,
Grotendeels bewolkt 3100 ft,
Bewolking 3500 ft
EHGG 250555Z AUTO 23006KT 9000 FEW008 BKN031 OVC035 16/15 Q1013 BECMG BKN008
EHGG - Terschelling
Gewijzigd: 25-09-2021 07:55
Bewolking  
Bewolking  
   Wind: ZW 11.1 km/h
Wind: ZW 11.1 km/h
Temperatuur: 16°C
Dauwpunt: 15°C
Vochtigheid: 94%
Barometer: 1013 hPa
Bewolking: Bewolking
Zicht: 9 km
Bewolking: Licht bewolkt 800 ft,
Grotendeels bewolkt 3100 ft,
Bewolking 3500 ft
EHGG 250555Z AUTO 23006KT 9000 FEW008 BKN031 OVC035 16/15 Q1013 BECMG BKN008
EHAM - Amsterdam
Gewijzigd: 25-09-2021 07:55
Grotendeels bewolkt  
Grotendeels bewolkt  
   Wind: Zuiden 9.3 km/h
Wind: Zuiden 9.3 km/h
Temperatuur: 17°C
Dauwpunt: 15°C
Vochtigheid: 88%
Barometer: 1014 hPa
Bewolking: Grotendeels bewolkt
Zicht: meer dan 10 km
Bewolking: Grotendeels bewolkt 700 ft
EHAM 250555Z 19005KT 9999 BKN007 17/15 Q1014 TEMPO SCT007
EHBK - Maastricht
Gewijzigd: 25-09-2021 07:55
Bewolking  
Bewolking  
   Wind: ZZW 14.8 km/h
Wind: ZZW 14.8 km/h
Temperatuur: 13°C
Dauwpunt: 12°C
Vochtigheid: 94%
Barometer: 1016 hPa
Bewolking: Bewolking
Zicht: meer dan 10 km
Bewolking: Bewolking 4900 ft
EHBK 250555Z AUTO 20008KT 9999 OVC049 13/12 Q1016 NOSIG
  

Script ontwikkeld door  Saratoga-weather.org Aangepast voor de template door  Weerstation Leuven

U vindt ons ook hier:

European Weather Network

Weather Underground

AWEKAS

Apparatuur in gebruik:

Weerstation
Davis VP2

Weerprogramma
Cumulus

Davis VP2

Cumulus